sensor_id;sensor_type;location;lat;lon;timestamp;temperature;humidity
18729;DHT22;9493;51.884;5.188;2023-04-25T11:20:22;12.60;97.20
18729;DHT22;9493;51.884;5.188;2023-04-25T11:22:51;12.90;96.70
18729;DHT22;9493;51.884;5.188;2023-04-25T11:25:18;13.30;96.20
18729;DHT22;9493;51.884;5.188;2023-04-25T11:27:51;13.40;95.70
18729;DHT22;9493;51.884;5.188;2023-04-25T11:30:20;13.50;95.30
18729;DHT22;9493;51.884;5.188;2023-04-25T11:32:47;13.40;95.10
18729;DHT22;9493;51.884;5.188;2023-04-25T11:35:14;14.10;95.30
18729;DHT22;9493;51.884;5.188;2023-04-25T11:37:43;14.60;95.10
18729;DHT22;9493;51.884;5.188;2023-04-25T11:40:11;13.80;95.30
18729;DHT22;9493;51.884;5.188;2023-04-25T11:42:38;13.40;95.80
18729;DHT22;9493;51.884;5.188;2023-04-25T11:45:06;12.30;96.20
18729;DHT22;9493;51.884;5.188;2023-04-25T11:47:34;11.30;97.50
18729;DHT22;9493;51.884;5.188;2023-04-25T11:50:01;10.90;98.40
18729;DHT22;9493;51.884;5.188;2023-04-25T11:52:36;11.20;98.80
18729;DHT22;9493;51.884;5.188;2023-04-25T11:55:06;10.70;99.10
18729;DHT22;9493;51.884;5.188;2023-04-25T11:57:33;10.70;99.50
18729;DHT22;9493;51.884;5.188;2023-04-25T12:00:08;11.00;99.60
18729;DHT22;9493;51.884;5.188;2023-04-25T12:02:36;12.10;99.80
18729;DHT22;9493;51.884;5.188;2023-04-25T12:05:06;11.70;99.70
18729;DHT22;9493;51.884;5.188;2023-04-25T12:07:33;11.80;99.50
18729;DHT22;9493;51.884;5.188;2023-04-25T12:10:06;11.80;98.30
18729;DHT22;9493;51.884;5.188;2023-04-25T12:12:34;12.10;97.00
18729;DHT22;9493;51.884;5.188;2023-04-25T12:15:11;13.00;96.80
18729;DHT22;9493;51.884;5.188;2023-04-25T12:17:41;13.90;96.20
18729;DHT22;9493;51.884;5.188;2023-04-25T12:20:10;14.60;95.70
18729;DHT22;9493;51.884;5.188;2023-04-25T12:22:41;13.80;95.50
18729;DHT22;9493;51.884;5.188;2023-04-25T12:25:12;13.60;95.40
18729;DHT22;9493;51.884;5.188;2023-04-25T12:27:39;14.40;95.40
18729;DHT22;9493;51.884;5.188;2023-04-25T12:30:08;13.80;95.20
18729;DHT22;9493;51.884;5.188;2023-04-25T12:32:37;13.80;95.00
18729;DHT22;9493;51.884;5.188;2023-04-25T12:35:05;14.10;94.90
18729;DHT22;9493;51.884;5.188;2023-04-25T12:37:32;14.40;95.00
18729;DHT22;9493;51.884;5.188;2023-04-25T12:39:58;14.10;95.00
18729;DHT22;9493;51.884;5.188;2023-04-25T12:42:27;13.60;95.30
18729;DHT22;9493;51.884;5.188;2023-04-25T12:44:53;13.20;95.80
18729;DHT22;9493;51.884;5.188;2023-04-25T12:47:20;12.80;96.30
18729;DHT22;9493;51.884;5.188;2023-04-25T12:49:47;12.10;96.80
18729;DHT22;9493;51.884;5.188;2023-04-25T12:52:14;12.20;97.30
18729;DHT22;9493;51.884;5.188;2023-04-25T12:54:40;11.70;97.80
18729;DHT22;9493;51.884;5.188;2023-04-25T12:57:07;11.80;98.00
18729;DHT22;9493;51.884;5.188;2023-04-25T12:59:36;12.00;98.30
18729;DHT22;9493;51.884;5.188;2023-04-25T13:02:02;13.30;98.70
18729;DHT22;9493;51.884;5.188;2023-04-25T13:04:29;14.10;98.70
18729;DHT22;9493;51.884;5.188;2023-04-25T13:06:56;14.30;98.30
18729;DHT22;9493;51.884;5.188;2023-04-25T13:09:23;15.00;97.60
18729;DHT22;9493;51.884;5.188;2023-04-25T13:11:49;15.80;97.10
18729;DHT22;9493;51.884;5.188;2023-04-25T13:14:16;16.10;96.60
18729;DHT22;9493;51.884;5.188;2023-04-25T13:16:44;15.90;96.00
18729;DHT22;9493;51.884;5.188;2023-04-25T13:19:11;15.20;95.70
18729;DHT22;9493;51.884;5.188;2023-04-25T13:21:38;14.50;95.40
18729;DHT22;9493;51.884;5.188;2023-04-25T13:24:05;14.10;95.50
18729;DHT22;9493;51.884;5.188;2023-04-25T13:26:32;13.30;96.20
18729;DHT22;9493;51.884;5.188;2023-04-25T13:28:59;12.70;96.40
18729;DHT22;9493;51.884;5.188;2023-04-25T13:31:31;12.50;96.70
18729;DHT22;9493;51.884;5.188;2023-04-25T13:33:59;12.20;96.80
18729;DHT22;9493;51.884;5.188;2023-04-25T13:36:26;12.60;96.60
18729;DHT22;9493;51.884;5.188;2023-04-25T13:38:53;13.10;96.40
18729;DHT22;9493;51.884;5.188;2023-04-25T13:41:20;12.60;95.40
18729;DHT22;9493;51.884;5.188;2023-04-25T13:43:46;12.90;95.00
18729;DHT22;9493;51.884;5.188;2023-04-25T13:46:14;13.10;94.50
18729;DHT22;9493;51.884;5.188;2023-04-25T13:48:41;13.60;94.20
18729;DHT22;9493;51.884;5.188;2023-04-25T13:51:14;14.10;94.00
18729;DHT22;9493;51.884;5.188;2023-04-25T13:53:43;13.80;93.60
18729;DHT22;9493;51.884;5.188;2023-04-25T13:56:10;14.20;93.60
18729;DHT22;9493;51.884;5.188;2023-04-25T13:58:37;14.20;93.50
18729;DHT22;9493;51.884;5.188;2023-04-25T14:01:04;14.10;93.40
18729;DHT22;9493;51.884;5.188;2023-04-25T14:03:31;14.10;93.00
18729;DHT22;9493;51.884;5.188;2023-04-25T14:05:58;14.00;92.50
18729;DHT22;9493;51.884;5.188;2023-04-25T14:08:26;14.00;91.90
18729;DHT22;9493;51.884;5.188;2023-04-25T14:10:54;14.10;91.70
18729;DHT22;9493;51.884;5.188;2023-04-25T14:13:20;14.30;91.50
18729;DHT22;9493;51.884;5.188;2023-04-25T14:15:48;13.70;91.40
18729;DHT22;9493;51.884;5.188;2023-04-25T14:18:17;14.40;91.40
18729;DHT22;9493;51.884;5.188;2023-04-25T14:20:44;14.40;91.50
18729;DHT22;9493;51.884;5.188;2023-04-25T14:23:10;13.60;91.80
18729;DHT22;9493;51.884;5.188;2023-04-25T14:25:38;14.40;92.40
18729;DHT22;9493;51.884;5.188;2023-04-25T14:28:05;13.50;92.80
18729;DHT22;9493;51.884;5.188;2023-04-25T14:30:32;12.30;92.90
18729;DHT22;9493;51.884;5.188;2023-04-25T14:32:59;12.20;93.30
18729;DHT22;9493;51.884;5.188;2023-04-25T14:35:25;11.80;93.50
18729;DHT22;9493;51.884;5.188;2023-04-25T14:37:53;11.80;93.80
18729;DHT22;9493;51.884;5.188;2023-04-25T14:40:20;12.00;93.80
18729;DHT22;9493;51.884;5.188;2023-04-25T14:42:49;12.00;94.00
18729;DHT22;9493;51.884;5.188;2023-04-25T14:45:16;11.80;94.10
18729;DHT22;9493;51.884;5.188;2023-04-25T14:47:43;11.60;94.30
18729;DHT22;9493;51.884;5.188;2023-04-25T14:50:10;11.30;94.40
18729;DHT22;9493;51.884;5.188;2023-04-25T14:52:37;11.20;94.40
18729;DHT22;9493;51.884;5.188;2023-04-25T14:55:04;11.30;94.50
18729;DHT22;9493;51.884;5.188;2023-04-25T14:57:32;11.60;94.40
18729;DHT22;9493;51.884;5.188;2023-04-25T15:00:01;11.90;94.60
18729;DHT22;9493;51.884;5.188;2023-04-25T15:02:28;12.10;94.60
18729;DHT22;9493;51.884;5.188;2023-04-25T15:04:55;12.00;94.60
18729;DHT22;9493;51.884;5.188;2023-04-25T15:07:22;12.00;94.70
18729;DHT22;9493;51.884;5.188;2023-04-25T15:09:49;11.50;94.70
18729;DHT22;9493;51.884;5.188;2023-04-25T15:12:16;11.70;94.70
18729;DHT22;9493;51.884;5.188;2023-04-25T15:14:42;12.10;94.60
18729;DHT22;9493;51.884;5.188;2023-04-25T15:17:11;12.50;94.60
18729;DHT22;9493;51.884;5.188;2023-04-25T15:19:39;12.30;94.70
18729;DHT22;9493;51.884;5.188;2023-04-25T15:22:06;12.50;94.60
18729;DHT22;9493;51.884;5.188;2023-04-25T15:24:33;12.70;94.20
18729;DHT22;9493;51.884;5.188;2023-04-25T15:27:00;12.30;94.00
18729;DHT22;9493;51.884;5.188;2023-04-25T15:29:26;11.90;93.70
18729;DHT22;9493;51.884;5.188;2023-04-25T15:31:54;11.80;93.50
18729;DHT22;9493;51.884;5.188;2023-04-25T15:34:22;11.70;93.10
18729;DHT22;9493;51.884;5.188;2023-04-25T15:36:48;12.20;93.00
18729;DHT22;9493;51.884;5.188;2023-04-25T15:39:15;12.80;93.00
18729;DHT22;9493;51.884;5.188;2023-04-25T15:41:42;12.10;93.10
18729;DHT22;9493;51.884;5.188;2023-04-25T15:44:09;11.50;93.10
18729;DHT22;9493;51.884;5.188;2023-04-25T15:46:36;11.10;93.10
18729;DHT22;9493;51.884;5.188;2023-04-25T15:49:02;10.80;93.20
18729;DHT22;9493;51.884;5.188;2023-04-25T15:51:31;10.80;93.30
18729;DHT22;9493;51.884;5.188;2023-04-25T15:53:58;10.90;93.40
18729;DHT22;9493;51.884;5.188;2023-04-25T15:56:25;11.20;93.60
18729;DHT22;9493;51.884;5.188;2023-04-25T15:58:52;11.80;93.80
18729;DHT22;9493;51.884;5.188;2023-04-25T16:01:19;12.20;93.80
18729;DHT22;9493;51.884;5.188;2023-04-25T16:03:49;12.40;93.60
18729;DHT22;9493;51.884;5.188;2023-04-25T16:06:16;12.60;93.00
18729;DHT22;9493;51.884;5.188;2023-04-25T16:08:44;12.50;92.60
18729;DHT22;9493;51.884;5.188;2023-04-25T16:11:11;12.50;92.30
18729;DHT22;9493;51.884;5.188;2023-04-25T16:13:39;12.70;92.30
18729;DHT22;9493;51.884;5.188;2023-04-25T16:16:06;12.50;92.20
18729;DHT22;9493;51.884;5.188;2023-04-25T16:18:33;11.90;92.00
18729;DHT22;9493;51.884;5.188;2023-04-25T16:21:00;11.60;92.40
18729;DHT22;9493;51.884;5.188;2023-04-25T16:23:26;11.30;93.00
18729;DHT22;9493;51.884;5.188;2023-04-25T16:25:55;10.90;93.70
18729;DHT22;9493;51.884;5.188;2023-04-25T16:28:22;11.20;94.60
18729;DHT22;9493;51.884;5.188;2023-04-25T16:30:49;11.40;95.10
18729;DHT22;9493;51.884;5.188;2023-04-25T16:33:15;11.70;95.40
18729;DHT22;9493;51.884;5.188;2023-04-25T16:35:42;11.90;95.90
18729;DHT22;9493;51.884;5.188;2023-04-25T16:38:09;12.00;96.00
18729;DHT22;9493;51.884;5.188;2023-04-25T16:40:36;11.40;96.20
18729;DHT22;9493;51.884;5.188;2023-04-25T16:43:04;11.10;96.10
18729;DHT22;9493;51.884;5.188;2023-04-25T16:45:31;11.00;95.90
18729;DHT22;9493;51.884;5.188;2023-04-25T16:47:57;10.90;95.50
18729;DHT22;9493;51.884;5.188;2023-04-25T16:50:24;10.90;94.90
18729;DHT22;9493;51.884;5.188;2023-04-25T16:52:51;11.10;94.80
18729;DHT22;9493;51.884;5.188;2023-04-25T16:55:19;11.30;94.50
18729;DHT22;9493;51.884;5.188;2023-04-25T16:57:45;11.30;94.20
18729;DHT22;9493;51.884;5.188;2023-04-25T17:00:15;11.20;94.00
18729;DHT22;9493;51.884;5.188;2023-04-25T17:02:42;11.30;94.00
18729;DHT22;9493;51.884;5.188;2023-04-25T17:05:09;11.40;94.00
18729;DHT22;9493;51.884;5.188;2023-04-25T17:07:36;11.30;93.80
18729;DHT22;9493;51.884;5.188;2023-04-25T17:10:03;11.50;93.80
18729;DHT22;9493;51.884;5.188;2023-04-25T17:12:31;11.30;93.70
18729;DHT22;9493;51.884;5.188;2023-04-25T17:14:58;11.00;93.50
18729;DHT22;9493;51.884;5.188;2023-04-25T17:17:27;10.90;93.20
18729;DHT22;9493;51.884;5.188;2023-04-25T17:19:53;10.60;93.00
18729;DHT22;9493;51.884;5.188;2023-04-25T17:22:20;10.80;92.90
18729;DHT22;9493;51.884;5.188;2023-04-25T17:24:47;10.70;92.80
18729;DHT22;9493;51.884;5.188;2023-04-25T17:27:14;10.60;92.80
18729;DHT22;9493;51.884;5.188;2023-04-25T17:29:41;10.70;93.10
18729;DHT22;9493;51.884;5.188;2023-04-25T17:32:09;10.60;93.50
18729;DHT22;9493;51.884;5.188;2023-04-25T17:34:37;10.40;93.80
18729;DHT22;9493;51.884;5.188;2023-04-25T17:37:04;10.40;94.00
18729;DHT22;9493;51.884;5.188;2023-04-25T17:39:31;10.20;94.20
18729;DHT22;9493;51.884;5.188;2023-04-25T17:41:58;10.10;94.30
18729;DHT22;9493;51.884;5.188;2023-04-25T17:44:25;9.90;94.50
18729;DHT22;9493;51.884;5.188;2023-04-25T17:46:52;9.70;94.70
18729;DHT22;9493;51.884;5.188;2023-04-25T17:49:18;9.70;94.90
18729;DHT22;9493;51.884;5.188;2023-04-25T17:51:47;9.50;95.20
18729;DHT22;9493;51.884;5.188;2023-04-25T17:54:13;9.50;95.50
18729;DHT22;9493;51.884;5.188;2023-04-25T17:56:43;9.50;96.00
18729;DHT22;9493;51.884;5.188;2023-04-25T17:59:10;9.40;96.30
18729;DHT22;9493;51.884;5.188;2023-04-25T18:01:37;9.40;96.60
18729;DHT22;9493;51.884;5.188;2023-04-25T18:04:03;9.40;97.00
18729;DHT22;9493;51.884;5.188;2023-04-25T18:06:30;9.50;97.20
18729;DHT22;9493;51.884;5.188;2023-04-25T18:09:00;9.50;97.40
18729;DHT22;9493;51.884;5.188;2023-04-25T18:11:27;9.50;97.50
18729;DHT22;9493;51.884;5.188;2023-04-25T18:13:54;9.20;97.40
18729;DHT22;9493;51.884;5.188;2023-04-25T18:16:21;9.10;97.20
18729;DHT22;9493;51.884;5.188;2023-04-25T18:18:48;9.00;97.00
18729;DHT22;9493;51.884;5.188;2023-04-25T18:21:17;8.80;96.80
18729;DHT22;9493;51.884;5.188;2023-04-25T18:23:44;8.70;96.60
18729;DHT22;9493;51.884;5.188;2023-04-25T18:26:12;8.70;96.60
18729;DHT22;9493;51.884;5.188;2023-04-25T18:28:40;8.60;96.80
18729;DHT22;9493;51.884;5.188;2023-04-25T18:31:07;8.50;97.20
18729;DHT22;9493;51.884;5.188;2023-04-25T18:33:34;8.60;97.50
18729;DHT22;9493;51.884;5.188;2023-04-25T18:36:01;8.40;97.90
18729;DHT22;9493;51.884;5.188;2023-04-25T18:38:27;8.30;98.30
18729;DHT22;9493;51.884;5.188;2023-04-25T18:40:54;8.20;98.70
18729;DHT22;9493;51.884;5.188;2023-04-25T18:43:22;8.00;99.10
18729;DHT22;9493;51.884;5.188;2023-04-25T18:45:49;7.90;99.40
18729;DHT22;9493;51.884;5.188;2023-04-25T18:48:16;7.90;99.60
18729;DHT22;9493;51.884;5.188;2023-04-25T18:50:43;7.80;99.80
18729;DHT22;9493;51.884;5.188;2023-04-25T18:53:10;7.80;99.90
18729;DHT22;9493;51.884;5.188;2023-04-25T18:55:37;7.70;99.90
18729;DHT22;9493;51.884;5.188;2023-04-25T18:58:05;7.60;99.90
18729;DHT22;9493;51.884;5.188;2023-04-25T19:00:34;7.60;99.90
18729;DHT22;9493;51.884;5.188;2023-04-25T19:03:01;7.50;99.90
18729;DHT22;9493;51.884;5.188;2023-04-25T19:05:28;7.40;99.90
18729;DHT22;9493;51.884;5.188;2023-04-25T19:07:56;7.30;99.90
18729;DHT22;9493;51.884;5.188;2023-04-25T19:10:23;7.30;99.90
18729;DHT22;9493;51.884;5.188;2023-04-25T19:12:49;7.20;99.90
18729;DHT22;9493;51.884;5.188;2023-04-25T19:15:16;7.20;99.90
18729;DHT22;9493;51.884;5.188;2023-04-25T19:17:45;7.00;99.90
18729;DHT22;9493;51.884;5.188;2023-04-25T19:20:12;7.00;99.90
18729;DHT22;9493;51.884;5.188;2023-04-25T19:22:39;6.90;99.90
18729;DHT22;9493;51.884;5.188;2023-04-25T19:25:06;6.80;99.90
18729;DHT22;9493;51.884;5.188;2023-04-25T19:27:33;6.90;99.90
18729;DHT22;9493;51.884;5.188;2023-04-25T19:29:59;6.80;99.90
18729;DHT22;9493;51.884;5.188;2023-04-25T19:32:32;6.80;99.90
18729;DHT22;9493;51.884;5.188;2023-04-25T19:35:00;6.70;99.90
18729;DHT22;9493;51.884;5.188;2023-04-25T19:37:28;6.70;99.90
18729;DHT22;9493;51.884;5.188;2023-04-25T19:39:56;6.70;99.90
18729;DHT22;9493;51.884;5.188;2023-04-25T19:42:22;6.60;99.90
18729;DHT22;9493;51.884;5.188;2023-04-25T19:44:50;6.60;99.90
18729;DHT22;9493;51.884;5.188;2023-04-25T19:47:17;6.50;99.90
18729;DHT22;9493;51.884;5.188;2023-04-25T19:49:44;6.50;99.90
18729;DHT22;9493;51.884;5.188;2023-04-25T19:52:12;6.50;99.90
18729;DHT22;9493;51.884;5.188;2023-04-25T19:54:40;6.50;99.90
18729;DHT22;9493;51.884;5.188;2023-04-25T19:57:07;6.40;99.90
18729;DHT22;9493;51.884;5.188;2023-04-25T19:59:34;6.40;99.90
18729;DHT22;9493;51.884;5.188;2023-04-25T20:02:01;6.40;99.90
18729;DHT22;9493;51.884;5.188;2023-04-25T20:04:29;6.30;99.90
18729;DHT22;9493;51.884;5.188;2023-04-25T20:06:55;6.20;99.90
18729;DHT22;9493;51.884;5.188;2023-04-25T20:09:24;6.20;99.90
18729;DHT22;9493;51.884;5.188;2023-04-25T20:11:51;6.10;99.90
18729;DHT22;9493;51.884;5.188;2023-04-25T20:14:18;6.10;99.90
18729;DHT22;9493;51.884;5.188;2023-04-25T20:16:46;6.00;99.90
18729;DHT22;9493;51.884;5.188;2023-04-25T20:19:13;6.00;99.90
18729;DHT22;9493;51.884;5.188;2023-04-25T20:21:40;5.90;99.90
18729;DHT22;9493;51.884;5.188;2023-04-25T20:24:06;5.80;99.90
18729;DHT22;9493;51.884;5.188;2023-04-25T20:26:35;5.80;99.90
18729;DHT22;9493;51.884;5.188;2023-04-25T20:29:01;5.70;99.90
18729;DHT22;9493;51.884;5.188;2023-04-25T20:31:29;5.60;99.90
18729;DHT22;9493;51.884;5.188;2023-04-25T20:33:56;5.60;99.90
18729;DHT22;9493;51.884;5.188;2023-04-25T20:36:23;5.60;99.90
18729;DHT22;9493;51.884;5.188;2023-04-25T20:38:51;5.60;99.90
18729;DHT22;9493;51.884;5.188;2023-04-25T20:41:18;5.60;99.90
18729;DHT22;9493;51.884;5.188;2023-04-25T20:43:46;5.40;99.90
18729;DHT22;9493;51.884;5.188;2023-04-25T20:46:14;5.40;99.90
18729;DHT22;9493;51.884;5.188;2023-04-25T20:48:42;5.40;99.90
18729;DHT22;9493;51.884;5.188;2023-04-25T20:51:08;5.30;99.90
18729;DHT22;9493;51.884;5.188;2023-04-25T20:53:36;5.30;99.90
18729;DHT22;9493;51.884;5.188;2023-04-25T20:56:03;5.20;99.90
18729;DHT22;9493;51.884;5.188;2023-04-25T20:58:30;5.10;99.90
18729;DHT22;9493;51.884;5.188;2023-04-25T21:00:59;5.20;99.90
18729;DHT22;9493;51.884;5.188;2023-04-25T21:03:25;5.20;99.90
18729;DHT22;9493;51.884;5.188;2023-04-25T21:05:52;5.10;99.90
18729;DHT22;9493;51.884;5.188;2023-04-25T21:08:19;5.10;99.90
18729;DHT22;9493;51.884;5.188;2023-04-25T21:10:46;5.10;99.90
18729;DHT22;9493;51.884;5.188;2023-04-25T21:13:13;5.10;99.90
18729;DHT22;9493;51.884;5.188;2023-04-25T21:15:40;5.00;99.90
18729;DHT22;9493;51.884;5.188;2023-04-25T21:18:08;5.10;99.90
18729;DHT22;9493;51.884;5.188;2023-04-25T21:20:35;5.00;99.90
18729;DHT22;9493;51.884;5.188;2023-04-25T21:23:02;5.00;99.90
18729;DHT22;9493;51.884;5.188;2023-04-25T21:25:29;5.00;99.90
18729;DHT22;9493;51.884;5.188;2023-04-25T21:27:56;4.90;99.90
18729;DHT22;9493;51.884;5.188;2023-04-25T21:30:24;5.20;99.90
18729;DHT22;9493;51.884;5.188;2023-04-25T21:32:51;4.80;99.90
18729;DHT22;9493;51.884;5.188;2023-04-25T21:35:20;4.80;99.90
18729;DHT22;9493;51.884;5.188;2023-04-25T21:37:48;4.90;99.90
18729;DHT22;9493;51.884;5.188;2023-04-25T21:40:15;4.70;99.90
18729;DHT22;9493;51.884;5.188;2023-04-25T21:42:42;4.60;99.90
18729;DHT22;9493;51.884;5.188;2023-04-25T21:45:10;4.50;99.90
18729;DHT22;9493;51.884;5.188;2023-04-25T21:47:37;4.50;99.90
18729;DHT22;9493;51.884;5.188;2023-04-25T21:50:04;4.60;99.90
18729;DHT22;9493;51.884;5.188;2023-04-25T21:52:34;4.50;99.90
18729;DHT22;9493;51.884;5.188;2023-04-25T21:55:01;4.60;99.90
18729;DHT22;9493;51.884;5.188;2023-04-25T21:57:28;4.50;99.90
18729;DHT22;9493;51.884;5.188;2023-04-25T21:59:54;4.70;99.90
18729;DHT22;9493;51.884;5.188;2023-04-25T22:02:21;4.50;99.90
18729;DHT22;9493;51.884;5.188;2023-04-25T22:04:49;4.50;99.90
18729;DHT22;9493;51.884;5.188;2023-04-25T22:07:16;4.50;99.90
18729;DHT22;9493;51.884;5.188;2023-04-25T22:09:44;4.40;99.90
18729;DHT22;9493;51.884;5.188;2023-04-25T22:12:11;4.40;99.90
18729;DHT22;9493;51.884;5.188;2023-04-25T22:14:39;4.40;99.90
18729;DHT22;9493;51.884;5.188;2023-04-25T22:17:06;4.30;99.90
18729;DHT22;9493;51.884;5.188;2023-04-25T22:19:32;4.30;99.90
18729;DHT22;9493;51.884;5.188;2023-04-25T22:21:59;4.30;99.90
18729;DHT22;9493;51.884;5.188;2023-04-25T22:24:27;4.30;99.90
18729;DHT22;9493;51.884;5.188;2023-04-25T22:26:56;4.30;99.90
18729;DHT22;9493;51.884;5.188;2023-04-25T22:29:23;4.30;99.90
18729;DHT22;9493;51.884;5.188;2023-04-25T22:31:51;4.20;99.90
18729;DHT22;9493;51.884;5.188;2023-04-25T22:34:18;4.20;99.90
18729;DHT22;9493;51.884;5.188;2023-04-25T22:36:45;4.00;99.90
18729;DHT22;9493;51.884;5.188;2023-04-25T22:39:11;4.10;99.90
18729;DHT22;9493;51.884;5.188;2023-04-25T22:41:40;4.00;99.90
18729;DHT22;9493;51.884;5.188;2023-04-25T22:44:08;4.00;99.90
18729;DHT22;9493;51.884;5.188;2023-04-25T22:46:36;4.00;99.90
18729;DHT22;9493;51.884;5.188;2023-04-25T22:49:03;4.00;99.90
18729;DHT22;9493;51.884;5.188;2023-04-25T22:51:30;3.90;99.90
18729;DHT22;9493;51.884;5.188;2023-04-25T22:53:57;3.80;99.90
18729;DHT22;9493;51.884;5.188;2023-04-25T22:56:25;3.70;99.90
18729;DHT22;9493;51.884;5.188;2023-04-25T22:58:52;3.70;99.90
18729;DHT22;9493;51.884;5.188;2023-04-25T23:01:20;3.60;99.90
18729;DHT22;9493;51.884;5.188;2023-04-25T23:03:47;3.60;99.90
18729;DHT22;9493;51.884;5.188;2023-04-25T23:06:14;3.60;99.90
18729;DHT22;9493;51.884;5.188;2023-04-25T23:08:41;3.50;99.90
18729;DHT22;9493;51.884;5.188;2023-04-25T23:11:08;3.50;99.90
18729;DHT22;9493;51.884;5.188;2023-04-25T23:13:35;3.50;99.90
18729;DHT22;9493;51.884;5.188;2023-04-25T23:16:05;3.40;99.90
18729;DHT22;9493;51.884;5.188;2023-04-25T23:18:34;3.50;99.90
18729;DHT22;9493;51.884;5.188;2023-04-25T23:21:02;3.30;99.90
18729;DHT22;9493;51.884;5.188;2023-04-25T23:23:29;3.40;99.90
18729;DHT22;9493;51.884;5.188;2023-04-25T23:25:56;3.20;99.90
18729;DHT22;9493;51.884;5.188;2023-04-25T23:28:23;3.30;99.90
18729;DHT22;9493;51.884;5.188;2023-04-25T23:30:50;3.30;99.90
18729;DHT22;9493;51.884;5.188;2023-04-25T23:33:17;3.20;99.90
18729;DHT22;9493;51.884;5.188;2023-04-25T23:35:45;3.20;99.90
18729;DHT22;9493;51.884;5.188;2023-04-25T23:38:12;3.20;99.90
18729;DHT22;9493;51.884;5.188;2023-04-25T23:40:40;3.30;99.90
18729;DHT22;9493;51.884;5.188;2023-04-25T23:43:07;3.20;99.90
18729;DHT22;9493;51.884;5.188;2023-04-25T23:45:34;3.30;99.90
18729;DHT22;9493;51.884;5.188;2023-04-25T23:48:01;3.30;99.90
18729;DHT22;9493;51.884;5.188;2023-04-25T23:50:27;3.20;99.90
18729;DHT22;9493;51.884;5.188;2023-04-25T23:52:56;3.20;99.90
18729;DHT22;9493;51.884;5.188;2023-04-25T23:55:23;3.20;99.90
18729;DHT22;9493;51.884;5.188;2023-04-25T23:57:50;3.20;99.90
